sensor_id;sensor_type;location;lat;lon;timestamp;P1;durP1;ratioP1;P2;durP2;ratioP2
33836;SDS011;20140;49.356;8.812;2023-04-15T00:00:35;5.40;;;2.85;;
33836;SDS011;20140;49.356;8.812;2023-04-15T00:03:01;3.97;;;2.80;;
33836;SDS011;20140;49.356;8.812;2023-04-15T00:05:28;5.20;;;2.80;;
33836;SDS011;20140;49.356;8.812;2023-04-15T00:07:55;4.63;;;2.50;;
33836;SDS011;20140;49.356;8.812;2023-04-15T00:10:20;5.40;;;2.50;;
33836;SDS011;20140;49.356;8.812;2023-04-15T00:12:45;4.95;;;2.55;;
33836;SDS011;20140;49.356;8.812;2023-04-15T00:15:11;3.95;;;2.40;;
33836;SDS011;20140;49.356;8.812;2023-04-15T00:17:37;5.50;;;3.10;;
33836;SDS011;20140;49.356;8.812;2023-04-15T00:20:03;6.15;;;3.00;;
33836;SDS011;20140;49.356;8.812;2023-04-15T00:22:30;7.07;;;3.72;;
33836;SDS011;20140;49.356;8.812;2023-04-15T00:24:56;6.37;;;3.90;;
33836;SDS011;20140;49.356;8.812;2023-04-15T00:27:22;5.97;;;4.40;;
33836;SDS011;20140;49.356;8.812;2023-04-15T00:29:48;7.43;;;5.85;;
33836;SDS011;20140;49.356;8.812;2023-04-15T00:32:13;5.90;;;3.60;;
33836;SDS011;20140;49.356;8.812;2023-04-15T00:34:39;6.25;;;3.60;;
33836;SDS011;20140;49.356;8.812;2023-04-15T00:37:05;6.32;;;3.10;;
33836;SDS011;20140;49.356;8.812;2023-04-15T00:39:31;4.72;;;2.85;;
33836;SDS011;20140;49.356;8.812;2023-04-15T00:41:56;4.50;;;3.03;;
33836;SDS011;20140;49.356;8.812;2023-04-15T00:44:22;3.35;;;2.97;;
33836;SDS011;20140;49.356;8.812;2023-04-15T00:46:49;3.22;;;2.70;;
33836;SDS011;20140;49.356;8.812;2023-04-15T00:49:15;3.20;;;2.72;;
33836;SDS011;20140;49.356;8.812;2023-04-15T00:51:44;4.25;;;3.20;;
33836;SDS011;20140;49.356;8.812;2023-04-15T00:54:09;2.50;;;2.20;;
33836;SDS011;20140;49.356;8.812;2023-04-15T00:56:36;5.03;;;2.53;;
33836;SDS011;20140;49.356;8.812;2023-04-15T00:59:05;5.47;;;2.55;;
33836;SDS011;20140;49.356;8.812;2023-04-15T01:01:32;4.57;;;2.97;;
33836;SDS011;20140;49.356;8.812;2023-04-15T01:03:59;12.38;;;2.80;;
33836;SDS011;20140;49.356;8.812;2023-04-15T01:06:25;4.95;;;2.75;;
33836;SDS011;20140;49.356;8.812;2023-04-15T01:08:52;6.25;;;2.47;;
33836;SDS011;20140;49.356;8.812;2023-04-15T01:11:18;4.63;;;2.70;;
33836;SDS011;20140;49.356;8.812;2023-04-15T01:13:44;4.95;;;2.47;;
33836;SDS011;20140;49.356;8.812;2023-04-15T01:16:11;5.53;;;2.92;;
33836;SDS011;20140;49.356;8.812;2023-04-15T01:18:37;4.20;;;2.90;;
33836;SDS011;20140;49.356;8.812;2023-04-15T01:21:04;5.68;;;2.85;;
33836;SDS011;20140;49.356;8.812;2023-04-15T01:23:31;7.10;;;2.53;;
33836;SDS011;20140;49.356;8.812;2023-04-15T01:25:56;5.28;;;2.95;;
33836;SDS011;20140;49.356;8.812;2023-04-15T01:28:23;7.57;;;2.90;;
33836;SDS011;20140;49.356;8.812;2023-04-15T01:30:49;5.32;;;2.63;;
33836;SDS011;20140;49.356;8.812;2023-04-15T01:33:15;3.13;;;2.83;;
33836;SDS011;20140;49.356;8.812;2023-04-15T01:35:40;4.70;;;2.60;;
33836;SDS011;20140;49.356;8.812;2023-04-15T01:38:08;4.57;;;3.20;;
33836;SDS011;20140;49.356;8.812;2023-04-15T01:40:35;5.25;;;2.92;;
33836;SDS011;20140;49.356;8.812;2023-04-15T01:43:01;5.10;;;2.97;;
33836;SDS011;20140;49.356;8.812;2023-04-15T01:45:26;3.57;;;2.93;;
33836;SDS011;20140;49.356;8.812;2023-04-15T01:47:52;4.80;;;3.30;;
33836;SDS011;20140;49.356;8.812;2023-04-15T01:50:18;4.45;;;3.00;;
33836;SDS011;20140;49.356;8.812;2023-04-15T01:52:44;10.27;;;3.60;;
33836;SDS011;20140;49.356;8.812;2023-04-15T01:55:11;5.60;;;3.53;;
33836;SDS011;20140;49.356;8.812;2023-04-15T01:57:37;3.97;;;2.95;;
33836;SDS011;20140;49.356;8.812;2023-04-15T02:00:03;5.73;;;3.37;;
33836;SDS011;20140;49.356;8.812;2023-04-15T02:02:31;6.00;;;3.22;;
33836;SDS011;20140;49.356;8.812;2023-04-15T02:04:57;5.82;;;3.38;;
33836;SDS011;20140;49.356;8.812;2023-04-15T02:07:23;5.25;;;3.20;;
33836;SDS011;20140;49.356;8.812;2023-04-15T02:09:48;5.22;;;3.33;;
33836;SDS011;20140;49.356;8.812;2023-04-15T02:12:14;4.78;;;2.60;;
33836;SDS011;20140;49.356;8.812;2023-04-15T02:14:39;5.30;;;3.08;;
33836;SDS011;20140;49.356;8.812;2023-04-15T02:17:05;4.72;;;3.28;;
33836;SDS011;20140;49.356;8.812;2023-04-15T02:19:33;6.05;;;3.40;;
33836;SDS011;20140;49.356;8.812;2023-04-15T02:21:59;3.83;;;2.90;;
33836;SDS011;20140;49.356;8.812;2023-04-15T02:24:28;5.35;;;2.42;;
33836;SDS011;20140;49.356;8.812;2023-04-15T02:26:55;4.85;;;2.67;;
33836;SDS011;20140;49.356;8.812;2023-04-15T02:29:20;3.57;;;3.27;;
33836;SDS011;20140;49.356;8.812;2023-04-15T02:31:47;5.13;;;2.95;;
33836;SDS011;20140;49.356;8.812;2023-04-15T02:34:13;5.28;;;4.07;;
33836;SDS011;20140;49.356;8.812;2023-04-15T02:36:38;3.97;;;2.88;;
33836;SDS011;20140;49.356;8.812;2023-04-15T02:39:04;3.88;;;2.42;;
33836;SDS011;20140;49.356;8.812;2023-04-15T02:41:30;3.25;;;2.70;;
33836;SDS011;20140;49.356;8.812;2023-04-15T02:43:56;3.58;;;3.10;;
33836;SDS011;20140;49.356;8.812;2023-04-15T02:46:22;6.20;;;3.08;;
33836;SDS011;20140;49.356;8.812;2023-04-15T02:48:48;4.90;;;2.83;;
33836;SDS011;20140;49.356;8.812;2023-04-15T02:51:17;5.35;;;2.70;;
33836;SDS011;20140;49.356;8.812;2023-04-15T02:53:44;3.88;;;2.88;;
33836;SDS011;20140;49.356;8.812;2023-04-15T02:56:10;4.30;;;3.42;;
33836;SDS011;20140;49.356;8.812;2023-04-15T02:58:36;8.02;;;3.67;;
33836;SDS011;20140;49.356;8.812;2023-04-15T03:01:02;6.13;;;4.10;;
33836;SDS011;20140;49.356;8.812;2023-04-15T03:03:28;4.60;;;3.30;;
33836;SDS011;20140;49.356;8.812;2023-04-15T03:05:53;3.75;;;3.08;;
33836;SDS011;20140;49.356;8.812;2023-04-15T03:08:19;4.57;;;3.00;;
33836;SDS011;20140;49.356;8.812;2023-04-15T03:10:45;6.38;;;3.00;;
33836;SDS011;20140;49.356;8.812;2023-04-15T03:13:11;6.72;;;4.10;;
33836;SDS011;20140;49.356;8.812;2023-04-15T03:15:37;6.55;;;3.30;;
33836;SDS011;20140;49.356;8.812;2023-04-15T03:18:02;3.50;;;3.00;;
33836;SDS011;20140;49.356;8.812;2023-04-15T03:20:28;3.63;;;2.65;;
33836;SDS011;20140;49.356;8.812;2023-04-15T03:22:53;4.90;;;2.90;;
33836;SDS011;20140;49.356;8.812;2023-04-15T03:25:19;6.67;;;2.90;;
33836;SDS011;20140;49.356;8.812;2023-04-15T03:27:44;4.80;;;2.83;;
33836;SDS011;20140;49.356;8.812;2023-04-15T03:30:10;4.38;;;3.20;;
33836;SDS011;20140;49.356;8.812;2023-04-15T03:32:36;5.53;;;3.58;;
33836;SDS011;20140;49.356;8.812;2023-04-15T03:35:02;6.30;;;3.47;;
33836;SDS011;20140;49.356;8.812;2023-04-15T03:37:27;4.10;;;2.63;;
33836;SDS011;20140;49.356;8.812;2023-04-15T03:39:53;3.50;;;2.63;;
33836;SDS011;20140;49.356;8.812;2023-04-15T03:42:18;7.23;;;3.50;;
33836;SDS011;20140;49.356;8.812;2023-04-15T03:44:44;5.10;;;3.37;;
33836;SDS011;20140;49.356;8.812;2023-04-15T03:47:09;5.93;;;2.80;;
33836;SDS011;20140;49.356;8.812;2023-04-15T03:49:35;3.93;;;3.57;;
33836;SDS011;20140;49.356;8.812;2023-04-15T03:52:01;4.60;;;2.88;;
33836;SDS011;20140;49.356;8.812;2023-04-15T03:54:26;6.18;;;3.40;;
33836;SDS011;20140;49.356;8.812;2023-04-15T03:56:52;5.70;;;3.05;;
33836;SDS011;20140;49.356;8.812;2023-04-15T03:59:17;7.97;;;3.35;;
33836;SDS011;20140;49.356;8.812;2023-04-15T04:01:43;4.63;;;2.92;;
33836;SDS011;20140;49.356;8.812;2023-04-15T04:04:08;3.55;;;2.72;;
33836;SDS011;20140;49.356;8.812;2023-04-15T04:06:34;3.45;;;3.00;;
33836;SDS011;20140;49.356;8.812;2023-04-15T04:09:00;4.10;;;2.73;;
33836;SDS011;20140;49.356;8.812;2023-04-15T04:11:26;3.80;;;2.87;;
33836;SDS011;20140;49.356;8.812;2023-04-15T04:13:52;5.65;;;2.90;;
33836;SDS011;20140;49.356;8.812;2023-04-15T04:16:17;5.68;;;3.50;;
33836;SDS011;20140;49.356;8.812;2023-04-15T04:18:43;5.00;;;2.90;;
33836;SDS011;20140;49.356;8.812;2023-04-15T04:21:09;3.87;;;3.20;;
33836;SDS011;20140;49.356;8.812;2023-04-15T04:23:35;4.53;;;2.95;;
33836;SDS011;20140;49.356;8.812;2023-04-15T04:26:01;3.78;;;3.03;;
33836;SDS011;20140;49.356;8.812;2023-04-15T04:28:26;4.67;;;3.30;;
33836;SDS011;20140;49.356;8.812;2023-04-15T04:30:52;5.07;;;2.93;;
33836;SDS011;20140;49.356;8.812;2023-04-15T04:33:17;3.63;;;2.73;;
33836;SDS011;20140;49.356;8.812;2023-04-15T04:35:43;7.27;;;5.17;;
33836;SDS011;20140;49.356;8.812;2023-04-15T04:38:08;4.93;;;3.23;;
33836;SDS011;20140;49.356;8.812;2023-04-15T04:40:34;5.93;;;3.10;;
33836;SDS011;20140;49.356;8.812;2023-04-15T04:43:00;9.02;;;4.18;;
33836;SDS011;20140;49.356;8.812;2023-04-15T04:45:25;5.20;;;3.35;;
33836;SDS011;20140;49.356;8.812;2023-04-15T04:47:51;5.57;;;3.38;;
33836;SDS011;20140;49.356;8.812;2023-04-15T04:50:16;6.82;;;3.25;;
33836;SDS011;20140;49.356;8.812;2023-04-15T04:52:42;3.90;;;2.97;;
33836;SDS011;20140;49.356;8.812;2023-04-15T04:55:08;4.20;;;3.38;;
33836;SDS011;20140;49.356;8.812;2023-04-15T04:57:33;3.03;;;2.80;;
33836;SDS011;20140;49.356;8.812;2023-04-15T05:00:03;3.63;;;3.30;;
33836;SDS011;20140;49.356;8.812;2023-04-15T05:02:30;5.68;;;2.50;;
33836;SDS011;20140;49.356;8.812;2023-04-15T05:04:56;4.75;;;3.00;;
33836;SDS011;20140;49.356;8.812;2023-04-15T05:07:22;6.40;;;3.72;;
33836;SDS011;20140;49.356;8.812;2023-04-15T05:09:47;6.40;;;3.00;;
33836;SDS011;20140;49.356;8.812;2023-04-15T05:12:13;3.30;;;3.00;;
33836;SDS011;20140;49.356;8.812;2023-04-15T05:14:41;6.25;;;2.90;;
33836;SDS011;20140;49.356;8.812;2023-04-15T05:17:07;5.25;;;3.28;;
33836;SDS011;20140;49.356;8.812;2023-04-15T05:19:33;5.70;;;2.93;;
33836;SDS011;20140;49.356;8.812;2023-04-15T05:21:59;3.80;;;3.10;;
33836;SDS011;20140;49.356;8.812;2023-04-15T05:24:25;6.18;;;2.83;;
33836;SDS011;20140;49.356;8.812;2023-04-15T05:26:51;3.60;;;2.90;;
33836;SDS011;20140;49.356;8.812;2023-04-15T05:29:16;7.32;;;3.15;;
33836;SDS011;20140;49.356;8.812;2023-04-15T05:31:42;4.38;;;3.33;;
33836;SDS011;20140;49.356;8.812;2023-04-15T05:34:08;4.68;;;3.03;;
33836;SDS011;20140;49.356;8.812;2023-04-15T05:36:34;4.23;;;3.50;;
33836;SDS011;20140;49.356;8.812;2023-04-15T05:38:59;4.90;;;3.00;;
33836;SDS011;20140;49.356;8.812;2023-04-15T05:41:25;6.88;;;3.47;;
33836;SDS011;20140;49.356;8.812;2023-04-15T05:43:51;3.33;;;2.83;;
33836;SDS011;20140;49.356;8.812;2023-04-15T05:46:16;4.90;;;2.90;;
33836;SDS011;20140;49.356;8.812;2023-04-15T05:48:42;3.47;;;3.07;;
33836;SDS011;20140;49.356;8.812;2023-04-15T05:51:07;4.18;;;3.22;;
33836;SDS011;20140;49.356;8.812;2023-04-15T05:53:33;4.60;;;3.50;;
33836;SDS011;20140;49.356;8.812;2023-04-15T05:55:59;5.47;;;3.03;;
33836;SDS011;20140;49.356;8.812;2023-04-15T05:58:25;4.72;;;3.53;;
33836;SDS011;20140;49.356;8.812;2023-04-15T06:00:51;5.32;;;3.88;;
33836;SDS011;20140;49.356;8.812;2023-04-15T06:03:16;5.53;;;3.20;;
33836;SDS011;20140;49.356;8.812;2023-04-15T06:05:42;4.00;;;3.07;;
33836;SDS011;20140;49.356;8.812;2023-04-15T06:08:08;3.63;;;3.33;;
33836;SDS011;20140;49.356;8.812;2023-04-15T06:10:34;5.40;;;3.10;;
33836;SDS011;20140;49.356;8.812;2023-04-15T06:13:01;3.40;;;3.10;;
33836;SDS011;20140;49.356;8.812;2023-04-15T06:15:28;6.90;;;2.70;;
33836;SDS011;20140;49.356;8.812;2023-04-15T06:17:53;3.70;;;3.10;;
33836;SDS011;20140;49.356;8.812;2023-04-15T06:20:19;3.88;;;2.70;;
33836;SDS011;20140;49.356;8.812;2023-04-15T06:22:44;3.47;;;3.13;;
33836;SDS011;20140;49.356;8.812;2023-04-15T06:25:10;4.78;;;3.17;;
33836;SDS011;20140;49.356;8.812;2023-04-15T06:27:35;7.65;;;3.13;;
33836;SDS011;20140;49.356;8.812;2023-04-15T06:30:01;4.53;;;3.05;;
33836;SDS011;20140;49.356;8.812;2023-04-15T06:32:27;3.95;;;3.17;;
33836;SDS011;20140;49.356;8.812;2023-04-15T06:34:53;5.23;;;3.33;;
33836;SDS011;20140;49.356;8.812;2023-04-15T06:37:18;5.30;;;3.13;;
33836;SDS011;20140;49.356;8.812;2023-04-15T06:39:44;6.17;;;5.10;;
33836;SDS011;20140;49.356;8.812;2023-04-15T06:42:09;7.70;;;6.07;;
33836;SDS011;20140;49.356;8.812;2023-04-15T06:44:36;5.28;;;4.78;;
33836;SDS011;20140;49.356;8.812;2023-04-15T06:47:01;7.20;;;6.20;;
33836;SDS011;20140;49.356;8.812;2023-04-15T06:49:27;5.78;;;4.97;;
33836;SDS011;20140;49.356;8.812;2023-04-15T06:51:53;7.13;;;4.57;;
33836;SDS011;20140;49.356;8.812;2023-04-15T06:54:18;5.70;;;4.10;;
33836;SDS011;20140;49.356;8.812;2023-04-15T06:56:44;5.33;;;4.03;;
33836;SDS011;20140;49.356;8.812;2023-04-15T06:59:09;5.50;;;4.23;;
33836;SDS011;20140;49.356;8.812;2023-04-15T07:01:35;5.88;;;3.70;;
33836;SDS011;20140;49.356;8.812;2023-04-15T07:04:00;5.13;;;4.38;;
33836;SDS011;20140;49.356;8.812;2023-04-15T07:06:26;4.60;;;4.07;;
33836;SDS011;20140;49.356;8.812;2023-04-15T07:08:51;4.65;;;4.13;;
33836;SDS011;20140;49.356;8.812;2023-04-15T07:11:18;4.03;;;2.90;;
33836;SDS011;20140;49.356;8.812;2023-04-15T07:13:45;5.95;;;3.38;;
33836;SDS011;20140;49.356;8.812;2023-04-15T07:16:10;4.80;;;3.33;;
33836;SDS011;20140;49.356;8.812;2023-04-15T07:18:36;3.67;;;3.08;;
33836;SDS011;20140;49.356;8.812;2023-04-15T07:21:01;4.68;;;3.00;;
33836;SDS011;20140;49.356;8.812;2023-04-15T07:23:27;4.45;;;2.95;;
33836;SDS011;20140;49.356;8.812;2023-04-15T07:25:53;5.97;;;2.95;;
33836;SDS011;20140;49.356;8.812;2023-04-15T07:28:18;5.40;;;3.30;;
33836;SDS011;20140;49.356;8.812;2023-04-15T07:30:44;4.13;;;2.88;;
33836;SDS011;20140;49.356;8.812;2023-04-15T07:33:10;4.90;;;3.50;;
33836;SDS011;20140;49.356;8.812;2023-04-15T07:35:35;5.68;;;4.20;;
33836;SDS011;20140;49.356;8.812;2023-04-15T07:38:01;6.23;;;5.10;;
33836;SDS011;20140;49.356;8.812;2023-04-15T07:40:27;5.97;;;3.27;;
33836;SDS011;20140;49.356;8.812;2023-04-15T07:42:53;5.57;;;4.40;;
33836;SDS011;20140;49.356;8.812;2023-04-15T07:45:20;4.40;;;3.47;;
33836;SDS011;20140;49.356;8.812;2023-04-15T07:47:45;4.78;;;3.40;;
33836;SDS011;20140;49.356;8.812;2023-04-15T07:50:11;5.45;;;3.45;;
33836;SDS011;20140;49.356;8.812;2023-04-15T07:52:36;4.43;;;3.27;;
33836;SDS011;20140;49.356;8.812;2023-04-15T07:55:05;5.90;;;3.83;;
33836;SDS011;20140;49.356;8.812;2023-04-15T07:57:35;6.97;;;3.20;;
33836;SDS011;20140;49.356;8.812;2023-04-15T08:00:01;4.07;;;2.70;;
33836;SDS011;20140;49.356;8.812;2023-04-15T08:02:29;3.58;;;2.80;;
33836;SDS011;20140;49.356;8.812;2023-04-15T08:04:55;3.92;;;2.75;;
33836;SDS011;20140;49.356;8.812;2023-04-15T08:07:21;5.90;;;3.13;;
33836;SDS011;20140;49.356;8.812;2023-04-15T08:09:47;3.93;;;3.03;;
33836;SDS011;20140;49.356;8.812;2023-04-15T08:12:12;4.40;;;3.70;;
33836;SDS011;20140;49.356;8.812;2023-04-15T08:14:39;6.47;;;2.90;;
33836;SDS011;20140;49.356;8.812;2023-04-15T08:17:04;3.63;;;3.05;;
33836;SDS011;20140;49.356;8.812;2023-04-15T08:19:30;3.78;;;2.58;;
33836;SDS011;20140;49.356;8.812;2023-04-15T08:21:56;3.00;;;2.70;;
33836;SDS011;20140;49.356;8.812;2023-04-15T08:24:21;3.17;;;2.47;;
33836;SDS011;20140;49.356;8.812;2023-04-15T08:26:50;4.57;;;2.57;;
33836;SDS011;20140;49.356;8.812;2023-04-15T08:29:16;3.55;;;2.72;;
33836;SDS011;20140;49.356;8.812;2023-04-15T08:31:41;4.15;;;2.95;;
33836;SDS011;20140;49.356;8.812;2023-04-15T08:34:07;2.78;;;2.58;;
33836;SDS011;20140;49.356;8.812;2023-04-15T08:36:33;4.22;;;2.75;;
33836;SDS011;20140;49.356;8.812;2023-04-15T08:38:59;6.70;;;3.13;;
33836;SDS011;20140;49.356;8.812;2023-04-15T08:41:26;2.90;;;2.60;;
33836;SDS011;20140;49.356;8.812;2023-04-15T08:44:03;4.50;;;3.65;;
33836;SDS011;20140;49.356;8.812;2023-04-15T08:46:30;3.97;;;2.95;;
33836;SDS011;20140;49.356;8.812;2023-04-15T08:48:56;5.35;;;3.40;;
33836;SDS011;20140;49.356;8.812;2023-04-15T08:51:22;6.93;;;3.70;;
33836;SDS011;20140;49.356;8.812;2023-04-15T08:53:49;4.50;;;3.20;;
33836;SDS011;20140;49.356;8.812;2023-04-15T08:56:16;3.70;;;2.80;;
33836;SDS011;20140;49.356;8.812;2023-04-15T08:58:43;5.15;;;3.28;;
33836;SDS011;20140;49.356;8.812;2023-04-15T09:01:10;4.50;;;3.13;;
33836;SDS011;20140;49.356;8.812;2023-04-15T09:03:37;9.85;;;3.13;;
33836;SDS011;20140;49.356;8.812;2023-04-15T09:06:03;4.50;;;3.03;;
33836;SDS011;20140;49.356;8.812;2023-04-15T09:08:30;3.75;;;2.47;;
33836;SDS011;20140;49.356;8.812;2023-04-15T09:10:56;4.40;;;2.15;;
33836;SDS011;20140;49.356;8.812;2023-04-15T09:13:21;2.90;;;2.20;;
33836;SDS011;20140;49.356;8.812;2023-04-15T09:15:47;3.27;;;2.10;;
33836;SDS011;20140;49.356;8.812;2023-04-15T09:18:13;2.73;;;2.00;;
33836;SDS011;20140;49.356;8.812;2023-04-15T09:20:55;3.13;;;2.83;;
33836;SDS011;20140;49.356;8.812;2023-04-15T09:23:21;2.38;;;1.80;;
33836;SDS011;20140;49.356;8.812;2023-04-15T09:25:47;4.38;;;2.40;;
33836;SDS011;20140;49.356;8.812;2023-04-15T09:28:13;3.65;;;2.20;;
33836;SDS011;20140;49.356;8.812;2023-04-15T09:30:39;2.38;;;2.00;;
33836;SDS011;20140;49.356;8.812;2023-04-15T09:33:10;5.35;;;2.22;;
33836;SDS011;20140;49.356;8.812;2023-04-15T09:35:38;4.05;;;2.10;;
33836;SDS011;20140;49.356;8.812;2023-04-15T09:38:05;2.50;;;2.30;;
33836;SDS011;20140;49.356;8.812;2023-04-15T09:40:33;3.33;;;1.52;;
33836;SDS011;20140;49.356;8.812;2023-04-15T09:43:00;4.55;;;2.45;;
33836;SDS011;20140;49.356;8.812;2023-04-15T09:45:27;1.90;;;1.20;;
33836;SDS011;20140;49.356;8.812;2023-04-15T09:47:53;3.50;;;1.70;;
33836;SDS011;20140;49.356;8.812;2023-04-15T09:50:19;4.37;;;2.63;;
33836;SDS011;20140;49.356;8.812;2023-04-15T09:52:45;3.95;;;2.28;;
33836;SDS011;20140;49.356;8.812;2023-04-15T09:55:12;3.80;;;1.90;;
33836;SDS011;20140;49.356;8.812;2023-04-15T09:57:38;5.28;;;2.28;;
33836;SDS011;20140;49.356;8.812;2023-04-15T10:00:08;3.88;;;2.20;;
33836;SDS011;20140;49.356;8.812;2023-04-15T10:02:35;4.72;;;2.20;;
33836;SDS011;20140;49.356;8.812;2023-04-15T10:05:03;2.25;;;2.05;;
33836;SDS011;20140;49.356;8.812;2023-04-15T10:07:29;6.13;;;2.50;;
33836;SDS011;20140;49.356;8.812;2023-04-15T10:09:56;4.27;;;2.90;;
33836;SDS011;20140;49.356;8.812;2023-04-15T10:12:24;3.90;;;1.90;;
33836;SDS011;20140;49.356;8.812;2023-04-15T10:15:01;5.63;;;2.75;;
33836;SDS011;20140;49.356;8.812;2023-04-15T10:17:31;4.77;;;2.60;;
33836;SDS011;20140;49.356;8.812;2023-04-15T10:20:02;5.38;;;3.17;;
33836;SDS011;20140;49.356;8.812;2023-04-15T10:22:29;6.95;;;2.83;;
33836;SDS011;20140;49.356;8.812;2023-04-15T10:24:56;4.63;;;2.97;;
33836;SDS011;20140;49.356;8.812;2023-04-15T10:27:23;5.43;;;2.63;;
33836;SDS011;20140;49.356;8.812;2023-04-15T10:29:49;4.33;;;2.87;;
33836;SDS011;20140;49.356;8.812;2023-04-15T10:32:16;4.77;;;3.43;;
33836;SDS011;20140;49.356;8.812;2023-04-15T10:34:44;6.53;;;3.55;;
33836;SDS011;20140;49.356;8.812;2023-04-15T10:37:12;4.55;;;3.30;;
33836;SDS011;20140;49.356;8.812;2023-04-15T10:39:44;5.80;;;2.85;;
33836;SDS011;20140;49.356;8.812;2023-04-15T10:42:13;3.90;;;2.92;;
33836;SDS011;20140;49.356;8.812;2023-04-15T10:44:44;6.63;;;3.50;;
33836;SDS011;20140;49.356;8.812;2023-04-15T10:47:15;5.65;;;3.00;;
33836;SDS011;20140;49.356;8.812;2023-04-15T10:49:49;3.83;;;2.55;;
33836;SDS011;20140;49.356;8.812;2023-04-15T10:52:16;3.70;;;2.08;;
33836;SDS011;20140;49.356;8.812;2023-04-15T10:54:46;2.83;;;1.70;;
33836;SDS011;20140;49.356;8.812;2023-04-15T10:57:16;4.45;;;3.05;;
33836;SDS011;20140;49.356;8.812;2023-04-15T11:02:41;3.17;;;1.73;;
33836;SDS011;20140;49.356;8.812;2023-04-15T11:05:09;3.67;;;2.00;;
33836;SDS011;20140;49.356;8.812;2023-04-15T11:10:00;3.63;;;2.00;;
33836;SDS011;20140;49.356;8.812;2023-04-15T11:12:33;4.70;;;2.63;;
33836;SDS011;20140;49.356;8.812;2023-04-15T11:17:50;2.97;;;1.50;;
33836;SDS011;20140;49.356;8.812;2023-04-15T11:20:16;0.80;;;0.80;;
33836;SDS011;20140;49.356;8.812;2023-04-15T11:22:54;5.03;;;1.75;;
33836;SDS011;20140;49.356;8.812;2023-04-15T11:25:29;1.38;;;1.27;;
33836;SDS011;20140;49.356;8.812;2023-04-15T11:27:57;1.52;;;1.05;;
33836;SDS011;20140;49.356;8.812;2023-04-15T11:30:28;2.90;;;1.45;;
33836;SDS011;20140;49.356;8.812;2023-04-15T11:33:00;1.60;;;1.02;;
33836;SDS011;20140;49.356;8.812;2023-04-15T11:35:27;2.22;;;1.15;;
33836;SDS011;20140;49.356;8.812;2023-04-15T11:37:54;4.88;;;1.65;;
33836;SDS011;20140;49.356;8.812;2023-04-15T11:40:23;3.27;;;1.87;;
33836;SDS011;20140;49.356;8.812;2023-04-15T11:45:55;2.75;;;1.20;;
33836;SDS011;20140;49.356;8.812;2023-04-15T11:48:23;8.38;;;4.75;;
33836;SDS011;20140;49.356;8.812;2023-04-15T11:50:57;1.30;;;1.15;;
33836;SDS011;20140;49.356;8.812;2023-04-15T11:53:46;1.45;;;1.20;;
33836;SDS011;20140;49.356;8.812;2023-04-15T11:56:20;5.10;;;1.70;;
33836;SDS011;20140;49.356;8.812;2023-04-15T11:58:48;4.47;;;1.60;;
33836;SDS011;20140;49.356;8.812;2023-04-15T12:01:17;1.58;;;0.90;;
33836;SDS011;20140;49.356;8.812;2023-04-15T12:03:46;4.22;;;1.70;;
33836;SDS011;20140;49.356;8.812;2023-04-15T12:11:31;2.75;;;1.30;;
33836;SDS011;20140;49.356;8.812;2023-04-15T12:14:06;1.65;;;1.48;;
33836;SDS011;20140;49.356;8.812;2023-04-15T12:16:37;3.07;;;1.70;;
33836;SDS011;20140;49.356;8.812;2023-04-15T12:19:06;2.78;;;2.10;;
33836;SDS011;20140;49.356;8.812;2023-04-15T12:21:36;1.88;;;1.10;;
33836;SDS011;20140;49.356;8.812;2023-04-15T12:24:03;1.80;;;1.33;;
33836;SDS011;20140;49.356;8.812;2023-04-15T12:26:32;3.22;;;1.60;;
33836;SDS011;20140;49.356;8.812;2023-04-15T12:29:14;3.25;;;1.40;;
33836;SDS011;20140;49.356;8.812;2023-04-15T12:31:48;3.70;;;1.98;;
33836;SDS011;20140;49.356;8.812;2023-04-15T12:34:15;1.93;;;1.50;;
33836;SDS011;20140;49.356;8.812;2023-04-15T12:36:41;5.03;;;1.92;;
33836;SDS011;20140;49.356;8.812;2023-04-15T12:39:07;2.72;;;1.83;;
33836;SDS011;20140;49.356;8.812;2023-04-15T12:41:33;3.10;;;1.60;;
33836;SDS011;20140;49.356;8.812;2023-04-15T12:43:59;3.30;;;2.15;;
33836;SDS011;20140;49.356;8.812;2023-04-15T12:46:25;2.03;;;1.50;;
33836;SDS011;20140;49.356;8.812;2023-04-15T12:48:51;3.88;;;2.05;;
33836;SDS011;20140;49.356;8.812;2023-04-15T12:51:17;3.45;;;1.80;;
33836;SDS011;20140;49.356;8.812;2023-04-15T12:53:43;3.00;;;1.30;;
33836;SDS011;20140;49.356;8.812;2023-04-15T12:56:08;3.03;;;1.70;;
33836;SDS011;20140;49.356;8.812;2023-04-15T12:58:34;2.50;;;1.37;;
33836;SDS011;20140;49.356;8.812;2023-04-15T13:01:00;2.30;;;1.40;;
33836;SDS011;20140;49.356;8.812;2023-04-15T13:03:25;2.38;;;1.63;;
33836;SDS011;20140;49.356;8.812;2023-04-15T13:05:51;1.30;;;1.17;;
33836;SDS011;20140;49.356;8.812;2023-04-15T13:08:16;3.10;;;1.30;;
33836;SDS011;20140;49.356;8.812;2023-04-15T13:10:42;3.60;;;1.73;;
33836;SDS011;20140;49.356;8.812;2023-04-15T13:13:08;1.73;;;1.37;;
33836;SDS011;20140;49.356;8.812;2023-04-15T13:15:33;5.30;;;2.57;;
33836;SDS011;20140;49.356;8.812;2023-04-15T13:17:59;2.28;;;1.38;;
33836;SDS011;20140;49.356;8.812;2023-04-15T13:20:25;7.45;;;1.70;;
33836;SDS011;20140;49.356;8.812;2023-04-15T13:22:51;3.90;;;2.35;;
33836;SDS011;20140;49.356;8.812;2023-04-15T13:25:17;2.72;;;1.73;;
33836;SDS011;20140;49.356;8.812;2023-04-15T13:27:43;2.70;;;1.63;;
33836;SDS011;20140;49.356;8.812;2023-04-15T13:30:09;2.95;;;1.27;;
33836;SDS011;20140;49.356;8.812;2023-04-15T13:32:34;2.67;;;1.83;;
33836;SDS011;20140;49.356;8.812;2023-04-15T13:35:00;1.83;;;1.33;;
33836;SDS011;20140;49.356;8.812;2023-04-15T13:37:26;1.83;;;1.20;;
33836;SDS011;20140;49.356;8.812;2023-04-15T13:39:52;2.53;;;1.33;;
33836;SDS011;20140;49.356;8.812;2023-04-15T13:42:19;2.13;;;1.63;;
33836;SDS011;20140;49.356;8.812;2023-04-15T13:44:45;5.35;;;1.60;;
33836;SDS011;20140;49.356;8.812;2023-04-15T13:47:11;3.38;;;1.25;;
33836;SDS011;20140;49.356;8.812;2023-04-15T13:49:38;1.60;;;1.48;;
33836;SDS011;20140;49.356;8.812;2023-04-15T13:52:04;3.20;;;1.63;;
33836;SDS011;20140;49.356;8.812;2023-04-15T13:54:30;2.78;;;1.88;;
33836;SDS011;20140;49.356;8.812;2023-04-15T13:56:55;3.67;;;2.17;;
33836;SDS011;20140;49.356;8.812;2023-04-15T13:59:21;3.17;;;1.88;;
33836;SDS011;20140;49.356;8.812;2023-04-15T14:01:47;2.55;;;1.83;;
33836;SDS011;20140;49.356;8.812;2023-04-15T14:04:13;1.88;;;1.60;;
33836;SDS011;20140;49.356;8.812;2023-04-15T14:06:39;3.20;;;2.15;;
33836;SDS011;20140;49.356;8.812;2023-04-15T14:09:05;2.40;;;1.50;;
33836;SDS011;20140;49.356;8.812;2023-04-15T14:11:30;2.90;;;1.58;;
33836;SDS011;20140;49.356;8.812;2023-04-15T14:13:56;4.03;;;1.48;;
33836;SDS011;20140;49.356;8.812;2023-04-15T14:16:21;1.45;;;1.35;;
33836;SDS011;20140;49.356;8.812;2023-04-15T14:18:47;2.23;;;1.47;;
33836;SDS011;20140;49.356;8.812;2023-04-15T14:21:12;1.43;;;1.10;;
33836;SDS011;20140;49.356;8.812;2023-04-15T14:23:39;2.83;;;1.00;;
33836;SDS011;20140;49.356;8.812;2023-04-15T14:26:05;3.50;;;1.05;;
33836;SDS011;20140;49.356;8.812;2023-04-15T14:28:30;1.02;;;0.80;;
33836;SDS011;20140;49.356;8.812;2023-04-15T14:30:56;0.93;;;0.80;;
33836;SDS011;20140;49.356;8.812;2023-04-15T14:33:21;1.30;;;0.90;;
33836;SDS011;20140;49.356;8.812;2023-04-15T14:35:48;1.70;;;1.03;;
33836;SDS011;20140;49.356;8.812;2023-04-15T14:38:15;2.30;;;1.17;;
33836;SDS011;20140;49.356;8.812;2023-04-15T14:40:40;1.80;;;1.00;;
33836;SDS011;20140;49.356;8.812;2023-04-15T14:43:06;1.58;;;1.08;;
33836;SDS011;20140;49.356;8.812;2023-04-15T14:45:32;1.52;;;1.20;;
33836;SDS011;20140;49.356;8.812;2023-04-15T14:47:57;1.85;;;1.40;;
33836;SDS011;20140;49.356;8.812;2023-04-15T14:50:23;2.78;;;1.35;;
33836;SDS011;20140;49.356;8.812;2023-04-15T14:52:49;2.15;;;1.17;;
33836;SDS011;20140;49.356;8.812;2023-04-15T14:55:15;2.03;;;1.40;;
33836;SDS011;20140;49.356;8.812;2023-04-15T14:57:41;1.33;;;1.20;;
33836;SDS011;20140;49.356;8.812;2023-04-15T15:00:07;1.17;;;1.02;;